Time;durP1;ratioP1;P1;durP2;ratioP2;P2;SDS_P1;SDS_P2;PMS_P1;PMS_P2;Temp;Humidity;BMP_temperature;BMP_pressure;BME280_temperature;BME280_humidity;BME280_pressure;Samples;Min_cycle;Max_cycle;Signal;HPM_P1;HPM_P2
2021/03/15 00:00:21;;;;;;;7.43;5.22;;;;;;;23.00;39.19;93710.44;5029648;28;20025;-67
2021/03/15 00:02:50;;;;;;;7.60;5.18;;;;;;;22.99;39.55;93721.84;5028845;28;20422;-67
2021/03/15 00:05:16;;;;;;;8.15;5.25;;;;;;;22.94;39.60;93718.03;5026905;28;20525;-67
2021/03/15 00:07:41;;;;;;;9.13;5.43;;;;;;;22.97;39.47;93716.94;5029262;28;20037;-67
2021/03/15 00:10:08;;;;;;;7.55;5.53;;;;;;;22.95;39.49;93719.47;5028362;28;20083;-68
2021/03/15 00:12:33;;;;;;;7.70;5.93;;;;;;;22.74;39.31;93687.41;5028921;28;20024;-67
2021/03/15 00:14:59;;;;;;;7.47;5.10;;;;;;;22.91;39.21;93705.47;5027081;28;20029;-68
2021/03/15 00:17:25;;;;;;;8.18;6.00;;;;;;;22.90;39.27;93706.72;5027834;28;20103;-67
2021/03/15 00:19:50;;;;;;;7.18;5.05;;;;;;;22.75;39.24;93672.50;5028489;28;20097;-67
2021/03/15 00:22:16;;;;;;;9.60;5.65;;;;;;;22.88;39.70;93691.47;5029134;28;20021;-67
2021/03/15 00:24:41;;;;;;;6.63;5.10;;;;;;;22.88;39.33;93696.91;5028946;28;20033;-67
2021/03/15 00:27:07;;;;;;;7.03;4.82;;;;;;;22.85;39.44;93717.03;5028441;28;20029;-67
2021/03/15 00:29:32;;;;;;;7.65;5.40;;;;;;;22.87;39.66;93698.16;5027790;28;20079;-67
2021/03/15 00:31:58;;;;;;;8.88;5.82;;;;;;;22.86;39.32;93726.66;5028200;28;20529;-67
2021/03/15 00:34:23;;;;;;;8.50;5.78;;;;;;;22.81;39.65;93697.59;5026800;28;20855;-67
2021/03/15 00:36:49;;;;;;;7.68;5.38;;;;;;;22.83;39.36;93689.63;5024477;28;20034;-67
2021/03/15 00:39:14;;;;;;;7.80;4.97;;;;;;;22.74;39.57;93681.97;5027813;28;20419;-67
2021/03/15 00:41:40;;;;;;;7.50;5.30;;;;;;;22.81;39.56;93678.53;5027834;28;20036;-67
2021/03/15 00:44:06;;;;;;;8.63;4.97;;;;;;;22.77;39.78;93680.88;5028682;28;20036;-67
2021/03/15 00:46:32;;;;;;;8.88;5.57;;;;;;;22.59;39.50;93660.09;5027761;28;20072;-68
2021/03/15 00:48:57;;;;;;;8.55;5.50;;;;;;;22.78;39.62;93676.88;5027152;28;20486;-69
2021/03/15 00:51:23;;;;;;;6.88;5.18;;;;;;;22.73;39.79;93669.59;5027415;28;20486;-67
2021/03/15 00:53:50;;;;;;;8.13;5.45;;;;;;;22.66;39.59;93643.81;5028484;28;20029;-67
2021/03/15 00:56:16;;;;;;;8.90;5.88;;;;;;;22.75;39.82;93656.94;5026584;28;20098;-67
2021/03/15 00:58:41;;;;;;;7.60;5.80;;;;;;;22.75;39.62;93661.63;5026694;28;20025;-67
2021/03/15 01:03:44;;;;;;;7.72;5.80;;;;;;;22.32;39.68;93599.03;4966221;22;20060;-69
2021/03/15 01:06:11;;;;;;;8.07;5.70;;;;;;;22.69;39.70;93642.00;5047325;28;20036;-69
2021/03/15 01:08:36;;;;;;;8.13;5.68;;;;;;;22.71;39.42;93648.38;5048081;28;20812;-69
2021/03/15 01:11:02;;;;;;;7.22;5.80;;;;;;;22.46;39.67;93586.75;5030990;28;20021;-71
2021/03/15 01:13:27;;;;;;;9.02;6.05;;;;;;;22.65;39.64;93625.31;5049464;28;20455;-71
2021/03/15 01:15:53;;;;;;;8.18;6.22;;;;;;;22.51;39.68;93583.16;5049480;28;20086;-70
2021/03/15 01:18:18;;;;;;;9.18;6.15;;;;;;;22.49;39.86;93585.69;5049391;28;20028;-70
2021/03/15 01:20:44;;;;;;;7.97;6.00;;;;;;;22.68;39.74;93624.25;5031403;28;20017;-70
2021/03/15 01:23:09;;;;;;;7.65;5.70;;;;;;;22.69;39.77;93620.22;5049231;28;20024;-70
2021/03/15 01:25:38;;;;;;;8.50;5.95;;;;;;;22.42;39.82;93559.91;5047538;28;20501;-70
2021/03/15 01:28:05;;;;;;;9.50;6.10;;;;;;;22.66;39.73;93599.53;5030530;28;20044;-70
2021/03/15 01:30:31;;;;;;;8.30;5.90;;;;;;;22.68;39.77;93613.34;5047325;28;20043;-70
2021/03/15 01:32:57;;;;;;;8.45;5.78;;;;;;;22.66;39.74;93615.88;5030921;28;20024;-70
2021/03/15 01:35:22;;;;;;;8.25;5.65;;;;;;;22.65;39.70;93598.09;5048749;28;20985;-70
2021/03/15 01:37:48;;;;;;;8.15;5.88;;;;;;;22.63;39.72;93584.28;5048987;28;20053;-71
2021/03/15 01:40:14;;;;;;;9.80;6.35;;;;;;;22.63;39.69;93589.72;5047192;28;20021;-70
2021/03/15 01:42:39;;;;;;;8.52;6.20;;;;;;;22.57;39.86;93587.19;5047410;28;20035;-71
2021/03/15 01:45:05;;;;;;;7.95;5.90;;;;;;;22.63;39.79;93589.72;5048691;28;20028;-71
2021/03/15 01:47:31;;;;;;;9.93;6.03;;;;;;;22.62;39.65;93577.41;5048644;28;20029;-70
2021/03/15 01:49:57;;;;;;;9.32;6.47;;;;;;;22.62;39.89;93571.97;5048539;28;20029;-71
2021/03/15 01:52:22;;;;;;;8.40;6.05;;;;;;;22.61;39.61;93575.94;5048887;28;20029;-70
2021/03/15 01:54:48;;;;;;;8.52;6.13;;;;;;;22.55;39.75;93569.94;5006745;28;20029;-69
2021/03/15 01:57:13;;;;;;;8.40;6.35;;;;;;;22.59;39.78;93562.88;5048556;28;20029;-69
2021/03/15 01:59:39;;;;;;;8.32;6.63;;;;;;;22.56;39.80;93538.75;5030235;28;20025;-70
2021/03/15 02:02:04;;;;;;;8.55;6.50;;;;;;;22.57;39.69;93548.34;5048023;28;20047;-70
2021/03/15 02:04:30;;;;;;;7.82;6.22;;;;;;;22.57;39.95;93559.97;5048250;28;20041;-70
2021/03/15 02:06:55;;;;;;;8.98;5.97;;;;;;;22.54;39.48;93544.00;5030702;28;20490;-70
2021/03/15 02:09:21;;;;;;;9.50;6.57;;;;;;;22.57;39.89;93532.03;5036969;28;20596;-70
2021/03/15 02:12:11;;;;;;;9.63;6.50;;;;;;;22.56;39.80;93536.03;5043836;28;20034;-71
2021/03/15 02:14:42;;;;;;;8.98;6.47;;;;;;;22.57;40.03;93559.22;5048170;28;20024;-71
2021/03/15 02:17:23;;;;;;;8.40;6.05;;;;;;;22.55;39.81;93551.63;5051792;28;20535;-70
2021/03/15 02:20:04;;;;;;;7.95;6.40;;;;;;;22.57;39.57;93537.47;5048459;28;20425;-70
2021/03/15 02:22:39;;;;;;;9.77;6.78;;;;;;;22.54;39.67;93519.50;5032729;28;20480;-70
2021/03/15 02:25:26;;;;;;;9.05;6.43;;;;;;;22.53;39.63;93509.91;5048502;28;20532;-70
2021/03/15 02:28:12;;;;;;;9.90;6.47;;;;;;;22.50;39.76;93527.31;5048714;28;20034;-70
2021/03/15 02:31:06;;;;;;;8.50;5.97;;;;;;;22.50;39.83;93538.19;5048547;28;20570;-70
2021/03/15 02:33:52;;;;;;;7.85;5.97;;;;;;;22.49;39.78;93521.13;5032071;28;20649;-69
2021/03/15 02:36:18;;;;;;;8.93;6.55;;;;;;;22.49;39.89;93515.69;5048308;28;20113;-70
2021/03/15 02:38:45;;;;;;;9.20;6.93;;;;;;;22.50;39.72;93513.72;5016610;28;20028;-70
2021/03/15 02:41:11;;;;;;;8.85;6.07;;;;;;;22.50;39.58;93500.09;5049262;28;20037;-70
2021/03/15 02:43:39;;;;;;;8.98;6.28;;;;;;;22.48;39.86;93497.94;5033972;28;20045;-70
2021/03/15 02:46:16;;;;;;;8.45;6.43;;;;;;;22.22;39.76;93459.38;5051679;28;20040;-70
2021/03/15 02:48:42;;;;;;;8.65;6.57;;;;;;;22.45;39.57;93504.44;5035114;28;20037;-70
2021/03/15 02:51:08;;;;;;;10.52;7.00;;;;;;;22.51;39.91;93512.41;5049957;28;20029;-70
2021/03/15 02:53:34;;;;;;;8.93;6.50;;;;;;;22.49;39.51;93509.53;5031625;28;20044;-69
2021/03/15 02:56:02;;;;;;;10.15;6.63;;;;;;;22.42;39.85;93491.19;5033278;28;20041;-70
2021/03/15 02:58:27;;;;;;;10.05;6.50;;;;;;;22.49;39.76;93509.53;5035173;28;20025;-70
2021/03/15 03:00:53;;;;;;;10.30;6.53;;;;;;;22.47;39.66;93487.59;5033668;28;20163;-70
2021/03/15 03:03:19;;;;;;;9.25;6.55;;;;;;;22.45;39.80;93476.50;5026861;28;20515;-70
2021/03/15 03:05:45;;;;;;;9.63;6.38;;;;;;;22.19;39.74;93438.69;5050624;28;20024;-70
2021/03/15 03:08:10;;;;;;;9.43;6.63;;;;;;;22.30;39.90;93452.00;5033354;28;20028;-70
2021/03/15 03:10:36;;;;;;;9.15;6.38;;;;;;;22.44;39.91;93486.66;5033975;28;20021;-70
2021/03/15 03:13:01;;;;;;;10.00;7.25;;;;;;;22.45;39.93;93487.38;5051425;28;20485;-70
2021/03/15 03:15:31;;;;;;;10.40;6.90;;;;;;;22.18;39.78;93448.13;5026924;28;20028;-70
2021/03/15 03:17:59;;;;;;;8.52;6.45;;;;;;;22.39;40.02;93478.69;5031557;28;20021;-70
2021/03/15 03:20:24;;;;;;;8.20;6.45;;;;;;;22.42;39.60;93485.75;5033086;28;20119;-70
2021/03/15 03:22:50;;;;;;;10.30;7.00;;;;;;;22.42;39.79;93477.59;5024095;28;20079;-69
2021/03/15 03:25:17;;;;;;;9.57;6.95;;;;;;;22.42;39.90;93472.16;5049832;28;20021;-69
2021/03/15 03:27:43;;;;;;;8.75;6.22;;;;;;;22.42;39.99;93483.03;5051937;28;20173;-68
2021/03/15 03:30:09;;;;;;;11.32;6.97;;;;;;;22.39;39.88;93467.81;5033969;28;20133;-69
2021/03/15 03:32:36;;;;;;;8.80;6.45;;;;;;;22.42;39.91;93466.72;5050366;28;20083;-70
2021/03/15 03:35:02;;;;;;;10.02;6.57;;;;;;;22.29;39.79;93464.13;5032674;28;20459;-70
2021/03/15 03:37:28;;;;;;;10.20;6.88;;;;;;;22.41;39.96;93467.97;5051735;28;20108;-70
2021/03/15 03:39:53;;;;;;;9.35;6.60;;;;;;;22.41;39.97;93462.53;5051898;28;20112;-71
2021/03/15 03:42:19;;;;;;;8.93;6.63;;;;;;;22.27;39.92;93444.91;5025358;28;20032;-70
2021/03/15 03:44:44;;;;;;;9.65;6.75;;;;;;;22.40;39.96;93452.91;5050908;28;20413;-70
2021/03/15 03:47:09;;;;;;;10.65;7.18;;;;;;;22.40;39.88;93463.09;5051100;28;20496;-70
2021/03/15 03:49:35;;;;;;;10.73;7.38;;;;;;;22.38;39.92;93444.59;5051140;28;20036;-70
2021/03/15 03:52:01;;;;;;;10.20;6.97;;;;;;;22.44;39.88;93426.09;5051095;28;20024;-70
2021/03/15 03:54:36;;;;;;;9.20;7.10;;;;;;;22.45;39.69;93446.56;5033360;28;20081;-70
2021/03/15 03:57:05;;;;;;;8.95;6.57;;;;;;;22.50;39.72;93438.25;5050955;28;20031;-69
2021/03/15 03:59:31;;;;;;;9.50;6.87;;;;;;;22.25;39.65;93387.63;5050013;28;20146;-69
2021/03/15 04:01:57;;;;;;;10.02;6.90;;;;;;;22.30;39.29;93394.91;5032450;28;20147;-69
2021/03/15 04:04:24;;;;;;;10.77;6.68;;;;;;;22.63;39.41;93421.03;5048953;28;20128;-70
2021/03/15 04:06:51;;;;;;;9.18;6.60;;;;;;;22.66;39.27;93419.97;5009083;28;20163;-70
2021/03/15 04:09:18;;;;;;;8.77;5.97;;;;;;;22.69;39.54;93416.16;5048414;28;20029;-70
2021/03/15 04:11:48;;;;;;;9.93;6.57;;;;;;;22.71;39.21;93400.03;5050677;28;20085;-70
2021/03/15 04:14:17;;;;;;;8.80;6.30;;;;;;;22.73;39.21;93397.47;5050654;28;20111;-70
2021/03/15 04:16:42;;;;;;;9.85;6.68;;;;;;;22.75;39.38;93400.38;5048678;28;20033;-70
2021/03/15 04:19:07;;;;;;;9.90;6.50;;;;;;;22.78;39.45;93415.63;5008687;28;20047;-70
2021/03/15 04:21:33;;;;;;;9.25;6.57;;;;;;;22.60;39.17;93378.59;5048972;28;20025;-70
2021/03/15 04:23:59;;;;;;;8.90;6.20;;;;;;;22.61;39.18;93377.34;5031376;28;20029;-70
2021/03/15 04:26:25;;;;;;;8.85;6.35;;;;;;;22.70;39.27;93393.13;5015862;28;20543;-73
2021/03/15 04:28:50;;;;;;;8.32;6.07;;;;;;;22.74;39.62;93401.66;5031964;28;20056;-69
2021/03/15 04:31:16;;;;;;;8.75;6.25;;;;;;;22.80;39.31;93394.75;5031858;28;20588;-70
2021/03/15 04:33:41;;;;;;;8.63;6.88;;;;;;;22.87;38.88;93413.09;5047807;28;20417;-70
2021/03/15 04:36:07;;;;;;;8.23;5.93;;;;;;;22.84;39.31;93397.13;5023411;28;20036;-70
2021/03/15 04:38:33;;;;;;;9.07;6.60;;;;;;;22.62;39.24;93355.03;5048303;28;20043;-70
2021/03/15 04:40:59;;;;;;;7.82;5.80;;;;;;;22.90;39.25;93390.97;5031213;28;20028;-70
2021/03/15 04:43:24;;;;;;;9.98;6.88;;;;;;;22.93;39.01;93389.91;5023375;28;20028;-70
2021/03/15 04:45:50;;;;;;;9.25;6.13;;;;;;;22.94;38.91;93388.63;5049533;28;20024;-73
2021/03/15 04:48:23;;;;;;;7.82;5.78;;;;;;;22.73;38.78;93343.06;5024069;28;20024;-70
2021/03/15 04:50:50;;;;;;;7.75;6.28;;;;;;;22.51;39.04;93322.00;5048276;28;20027;-70
2021/03/15 04:53:16;;;;;;;12.25;7.78;;;;;;;22.91;38.93;93381.53;5027557;28;20025;-73
2021/03/15 04:55:41;;;;;;;11.98;7.10;;;;;;;22.82;39.03;93367.00;5037757;28;20060;-73
2021/03/15 04:58:08;;;;;;;12.05;7.72;;;;;;;22.95;38.74;93365.56;5013762;28;20232;-74
2021/03/15 05:00:34;;;;;;;11.60;7.90;;;;;;;22.93;38.82;93362.69;5025701;28;20028;-85
2021/03/15 05:03:00;;;;;;;11.93;6.97;;;;;;;22.98;38.69;93380.81;5035088;28;20051;-83
2021/03/15 05:05:25;;;;;;;14.35;6.57;;;;;;;23.00;39.16;93374.81;5039766;28;20017;-80
2021/03/15 05:07:51;;;;;;;10.50;6.95;;;;;;;23.01;39.20;93363.38;5024337;28;20051;-81
2021/03/15 05:10:17;;;;;;;12.32;6.93;;;;;;;22.87;39.37;93341.59;5054706;28;20088;-86
2021/03/15 05:12:43;;;;;;;319.88;223.55;;;;;;;22.69;37.22;93338.00;5045329;28;20255;-86
2021/03/15 05:15:10;;;;;;;271.90;187.00;;;;;;;22.76;36.71;93364.47;5062023;28;20028;-84
2021/03/15 05:17:35;;;;;;;183.95;142.63;;;;;;;22.45;37.16;93345.94;5049731;28;20047;-79
2021/03/15 05:20:04;;;;;;;39.08;25.10;;;;;;;22.29;37.42;93377.13;5051276;28;20041;-77
2021/03/15 05:22:31;;;;;;;33.63;23.73;;;;;;;21.86;38.19;93324.78;5047429;28;20025;-90
2021/03/15 05:24:56;;;;;;;33.42;22.83;;;;;;;22.22;38.95;93355.34;5051139;28;20025;-84
2021/03/15 05:27:22;;;;;;;31.90;21.98;;;;;;;22.41;39.48;93367.34;5052356;28;20048;-86
2021/03/15 05:29:48;;;;;;;28.58;20.23;;;;;;;22.52;39.18;93369.72;5029220;28;20518;-82
2021/03/15 05:32:15;;;;;;;29.48;19.73;;;;;;;22.42;39.27;93341.63;5044165;28;20035;-84
2021/03/15 05:34:41;;;;;;;27.17;20.08;;;;;;;22.70;39.26;93371.34;5029852;28;20021;-82
2021/03/15 05:37:06;;;;;;;27.40;20.02;;;;;;;22.78;39.20;93377.53;5047730;28;20051;-80
2021/03/15 05:39:32;;;;;;;26.63;17.52;;;;;;;22.88;39.13;93359.38;5047024;28;20040;-83
2021/03/15 05:41:57;;;;;;;25.55;17.60;;;;;;;22.97;38.89;93360.31;5027984;28;20573;-80
2021/03/15 05:44:41;;;;;;;24.05;17.48;;;;;;;23.08;38.90;93359.94;5030975;28;20174;-83
2021/03/15 05:47:26;;;;;;;24.52;16.88;;;;;;;23.20;38.59;93347.41;5040038;28;20178;-80
2021/03/15 05:50:18;;;;;;;25.20;16.73;;;;;;;23.36;38.27;93337.91;5040703;28;20017;-86
2021/03/15 05:52:58;;;;;;;24.73;16.00;;;;;;;23.20;38.30;93303.81;5040828;28;20056;-73
2021/03/15 05:55:34;;;;;;;22.23;15.68;;;;;;;23.59;37.79;93352.91;5029571;28;20037;-81
2021/03/15 05:58:28;;;;;;;20.90;15.10;;;;;;;23.72;37.68;93346.53;5026956;28;20060;-89
2021/03/15 06:01:21;;;;;;;22.67;14.85;;;;;;;23.85;37.59;93343.56;5042324;28;20021;-78
2021/03/15 06:03:53;;;;;;;20.30;13.90;;;;;;;23.98;37.57;93346.78;5041539;28;20153;-87
2021/03/15 06:06:19;;;;;;;21.38;14.13;;;;;;;24.11;37.47;93366.34;5030774;28;20032;-86
2021/03/15 06:08:46;;;;;;;19.92;14.00;;;;;;;24.21;36.90;93356.28;5027541;28;20017;-85
2021/03/15 06:11:12;;;;;;;18.50;12.95;;;;;;;24.11;37.14;93321.97;5045632;28;20033;-82
2021/03/15 06:13:38;;;;;;;20.95;14.60;;;;;;;23.23;35.25;93351.75;5031934;28;20033;-83
2021/03/15 06:16:04;;;;;;;19.75;13.80;;;;;;;23.25;36.54;93354.63;5043503;28;20056;-91
2021/03/15 06:18:30;;;;;;;18.63;12.95;;;;;;;23.55;36.47;93355.28;5039003;28;20029;-88
2021/03/15 06:20:56;;;;;;;17.55;12.85;;;;;;;23.82;36.28;93355.59;5045939;28;20497;-84
2021/03/15 06:23:21;;;;;;;16.88;11.63;;;;;;;24.07;35.84;93360.56;5048706;28;20342;-87
2021/03/15 06:25:48;;;;;;;15.60;11.13;;;;;;;24.22;36.06;93354.31;5048972;28;20444;-91
2021/03/15 06:28:14;;;;;;;16.40;11.68;;;;;;;24.40;35.50;93356.56;5027472;28;20053;-91
2021/03/15 06:30:40;;;;;;;13.65;10.23;;;;;;;24.55;35.19;93364.66;5013512;28;20032;-83
2021/03/15 06:33:05;;;;;;;15.60;10.77;;;;;;;24.66;35.12;93353.28;5032599;28;20017;-83
2021/03/15 06:35:39;;;;;;;13.65;10.20;;;;;;;24.77;35.30;93344.66;5049369;28;20120;-84
2021/03/15 06:38:05;;;;;;;16.27;10.60;;;;;;;24.64;35.49;93306.72;5034542;28;20044;-88
2021/03/15 06:40:34;;;;;;;13.85;10.68;;;;;;;24.89;35.18;93355.28;5032303;28;20576;-85
2021/03/15 06:43:01;;;;;;;14.38;9.98;;;;;;;24.96;34.94;93357.25;5051615;28;20084;-81
2021/03/15 06:45:27;;;;;;;14.32;9.30;;;;;;;25.03;34.88;93348.28;5046586;28;20032;-83
2021/03/15 06:47:52;;;;;;;14.95;9.82;;;;;;;24.98;35.17;93316.44;5047404;28;20024;-80
2021/03/15 06:50:18;;;;;;;14.27;10.10;;;;;;;25.21;34.95;93340.84;5024402;28;20032;-84
2021/03/15 06:52:53;;;;;;;12.68;9.52;;;;;;;25.26;34.63;93343.34;5033930;28;20035;-86
2021/03/15 06:55:19;;;;;;;13.15;9.75;;;;;;;25.35;34.54;93331.75;5052726;28;20124;-84
2021/03/15 06:57:45;;;;;;;12.55;9.13;;;;;;;25.34;34.64;93327.59;5054466;28;20028;-91
2021/03/15 07:00:11;;;;;;;12.15;9.25;;;;;;;25.45;34.40;93346.22;5039371;28;20052;-82
2021/03/15 07:02:36;;;;;;;13.18;9.85;;;;;;;25.50;34.58;93339.78;5053368;28;20140;-81
2021/03/15 07:05:08;;;;;;;11.95;8.75;;;;;;;25.57;34.48;93333.53;5053749;28;20032;-82
2021/03/15 07:07:34;;;;;;;13.85;10.25;;;;;;;25.53;34.01;93341.41;5030415;28;20028;-89
2021/03/15 07:10:00;;;;;;;12.02;8.95;;;;;;;25.57;34.29;93322.59;5015604;28;20086;-83
2021/03/15 07:12:26;;;;;;;12.18;9.23;;;;;;;25.68;34.35;93338.53;5037256;28;20039;-84
2021/03/15 07:14:53;;;;;;;11.40;8.32;;;;;;;25.71;34.24;93327.19;5055525;28;20028;-87
2021/03/15 07:17:25;;;;;;;11.70;8.73;;;;;;;25.80;34.01;93319.06;5055237;28;20429;-87
2021/03/15 07:19:51;;;;;;;18.77;11.90;;;;;;;25.83;33.05;93322.69;5050029;28;20135;-76
2021/03/15 07:22:22;;;;;;;12.52;9.48;;;;;;;25.72;33.59;93317.69;5052490;28;20159;-87
2021/03/15 07:25:04;;;;;;;11.55;8.95;;;;;;;25.80;33.93;93327.25;5036327;28;20060;-78
2021/03/15 07:27:30;;;;;;;9.98;7.47;;;;;;;25.83;33.87;93317.94;5050707;28;20078;-75
2021/03/15 07:29:55;;;;;;;12.43;8.23;;;;;;;25.90;33.88;93306.19;5048724;28;20045;-78
2021/03/15 07:32:37;;;;;;;12.10;8.45;;;;;;;25.93;33.84;93304.31;5032506;28;20025;-77
2021/03/15 07:35:22;;;;;;;11.65;8.18;;;;;;;25.98;33.80;93306.09;5037438;28;20039;-77
2021/03/15 07:37:47;;;;;;;9.95;7.72;;;;;;;25.99;33.91;93300.03;5056023;28;20027;-77
2021/03/15 07:40:26;;;;;;;10.05;7.68;;;;;;;25.99;33.83;93302.78;5056919;28;20029;-77
2021/03/15 07:43:02;;;;;;;10.13;8.05;;;;;;;25.77;33.58;93274.97;5040458;28;20031;-77
2021/03/15 07:45:33;;;;;;;11.18;8.05;;;;;;;25.90;33.95;93295.25;5034705;28;20086;-78
2021/03/15 07:48:10;;;;;;;12.20;8.40;;;;;;;25.79;34.36;93291.56;5052323;28;20025;-77
2021/03/15 07:50:36;;;;;;;10.57;8.10;;;;;;;25.76;34.02;93306.38;5051528;28;20021;-78
2021/03/15 07:53:03;;;;;;;11.63;7.85;;;;;;;25.71;34.17;93288.91;5034637;28;20035;-78
2021/03/15 07:55:47;;;;;;;12.90;8.13;;;;;;;25.61;34.32;93284.66;5033098;28;20033;-78
2021/03/15 07:58:29;;;;;;;11.60;7.82;;;;;;;25.53;34.78;93289.47;5046747;28;20127;-80
2021/03/15 08:00:55;;;;;;;12.90;7.78;;;;;;;25.45;34.70;93288.84;5048665;28;20017;-78
2021/03/15 08:03:22;;;;;;;11.18;8.35;;;;;;;25.43;34.79;93275.03;5039352;28;20136;-79
2021/03/15 08:05:48;;;;;;;13.70;8.20;;;;;;;25.41;34.90;93277.56;5048749;28;20078;-79
2021/03/15 08:08:14;;;;;;;14.23;7.18;;;;;;;25.30;34.90;93261.69;5034828;28;20024;-77
2021/03/15 08:10:41;;;;;;;11.52;7.55;;;;;;;25.26;34.94;93261.38;5050215;28;20048;-78
2021/03/15 08:13:08;;;;;;;14.32;8.15;;;;;;;25.18;34.91;93266.19;5048382;28;20039;-77
2021/03/15 08:15:33;;;;;;;12.85;7.50;;;;;;;25.14;35.17;93260.41;5029961;28;20067;-78
2021/03/15 08:17:59;;;;;;;11.20;8.00;;;;;;;25.06;35.44;93254.28;5052813;28;20485;-79
2021/03/15 08:20:24;;;;;;;13.13;7.90;;;;;;;25.01;35.50;93260.00;4968621;28;20052;-79
2021/03/15 08:22:52;;;;;;;15.40;7.68;;;;;;;24.97;35.45;93251.44;5016674;28;20020;-79
2021/03/15 08:25:17;;;;;;;14.50;7.07;;;;;;;24.93;35.50;93251.84;5049380;28;20025;-79
2021/03/15 08:27:43;;;;;;;12.75;7.70;;;;;;;24.90;35.84;93252.25;5012012;28;20033;-79
2021/03/15 08:30:20;;;;;;;10.95;7.50;;;;;;;24.82;36.13;93252.31;5040761;28;20028;-78
2021/03/15 08:32:45;;;;;;;15.02;8.00;;;;;;;24.77;36.21;93252.56;5043252;28;20025;-79
2021/03/15 08:35:15;;;;;;;20.75;7.97;;;;;;;24.75;35.78;93246.91;5047559;28;20027;-80
2021/03/15 08:38:02;;;;;;;14.88;8.73;;;;;;;24.72;35.89;93247.34;5037687;28;20032;-69
2021/03/15 08:40:46;;;;;;;13.27;7.50;;;;;;;24.71;36.08;93235.69;5049706;28;20025;-75
2021/03/15 08:43:17;;;;;;;14.95;7.88;;;;;;;24.72;36.30;93244.59;5052169;28;20051;-77
2021/03/15 08:45:49;;;;;;;13.88;7.03;;;;;;;24.67;36.82;93234.66;5052392;28;20088;-79
2021/03/15 08:48:15;;;;;;;12.05;7.35;;;;;;;24.54;36.34;93210.38;5038558;28;20033;-70
2021/03/15 08:50:42;;;;;;;18.73;8.07;;;;;;;24.57;36.87;93218.19;5042606;28;20032;-70
2021/03/15 08:53:08;;;;;;;13.07;7.25;;;;;;;24.55;36.68;93222.75;5041012;28;20025;-70
2021/03/15 08:55:46;;;;;;;16.48;7.78;;;;;;;24.51;37.12;93217.69;5049606;28;20029;-70
2021/03/15 08:58:43;;;;;;;13.20;7.15;;;;;;;24.45;37.06;93208.28;5050309;28;20074;-70
2021/03/15 09:01:12;;;;;;;12.77;7.47;;;;;;;24.42;36.97;93209.38;5032357;28;20053;-70
2021/03/15 09:03:50;;;;;;;11.48;6.95;;;;;;;24.40;37.41;93198.31;5049647;28;20516;-70
2021/03/15 09:06:31;;;;;;;13.70;7.57;;;;;;;24.43;37.12;93199.94;5043430;28;20021;-70
2021/03/15 09:09:00;;;;;;;11.10;6.93;;;;;;;24.25;36.80;93164.97;5038659;28;20026;-70
2021/03/15 09:11:37;;;;;;;16.83;7.88;;;;;;;24.42;36.90;93187.56;5036378;28;20124;-70
2021/03/15 09:14:20;;;;;;;12.20;6.80;;;;;;;24.41;37.00;93169.75;5050414;28;20420;-70
2021/03/15 09:16:49;;;;;;;13.35;7.55;;;;;;;24.38;37.03;93176.34;5049626;28;20028;-70
2021/03/15 09:19:39;;;;;;;19.27;7.72;;;;;;;24.37;37.18;93169.44;5032010;28;20037;-70
2021/03/15 09:22:04;;;;;;;20.20;7.43;;;;;;;24.34;36.98;93160.34;5049664;28;20091;-70
2021/03/15 09:24:49;;;;;;;14.73;7.03;;;;;;;24.14;36.99;93136.16;5050465;28;20029;-70
2021/03/15 09:27:25;;;;;;;14.95;7.03;;;;;;;24.31;37.42;93149.81;5033716;28;20033;-71
2021/03/15 09:30:02;;;;;;;13.93;7.53;;;;;;;24.29;37.42;93146.94;5048390;28;20489;-71
2021/03/15 09:32:32;;;;;;;15.68;7.85;;;;;;;24.27;36.92;93144.03;5047800;28;20499;-71
2021/03/15 09:35:01;;;;;;;14.63;7.20;;;;;;;24.09;37.22;93118.00;5050123;28;20456;-71
2021/03/15 09:37:26;;;;;;;13.90;7.20;;;;;;;24.21;37.37;93135.34;5017627;28;20037;-70
2021/03/15 09:39:56;;;;;;;14.48;6.80;;;;;;;24.25;37.49;93140.44;5020569;28;20021;-70
2021/03/15 09:42:21;;;;;;;13.93;7.03;;;;;;;24.20;36.94;93131.19;5038389;28;20028;-70
2021/03/15 09:44:47;;;;;;;14.48;7.40;;;;;;;24.21;36.74;93135.34;5021451;28;20040;-71
2021/03/15 09:47:13;;;;;;;12.60;6.70;;;;;;;24.18;36.97;93136.47;5042754;28;20033;-69
2021/03/15 09:49:43;;;;;;;22.02;7.63;;;;;;;24.15;37.32;93125.97;5046957;28;20036;-69
2021/03/15 09:52:14;;;;;;;14.20;7.32;;;;;;;24.18;36.95;93128.28;5014232;28;20017;-70
2021/03/15 09:54:53;;;;;;;9.93;6.45;;;;;;;23.98;36.86;93096.66;5042683;28;20120;-70
2021/03/15 09:57:19;;;;;;;13.85;7.40;;;;;;;24.14;37.27;93114.34;5030953;28;20025;-70
2021/03/15 09:59:45;;;;;;;14.25;6.85;;;;;;;24.09;36.76;93104.38;5039647;28;20029;-70
2021/03/15 10:02:12;;;;;;;14.80;7.05;;;;;;;24.14;37.22;93108.88;5016972;28;20036;-67
2021/03/15 10:04:39;;;;;;;16.30;7.90;;;;;;;24.13;37.44;93112.88;5027221;28;20119;-71
2021/03/15 10:07:11;;;;;;;15.63;7.05;;;;;;;24.07;37.44;93098.03;5042939;28;20417;-70
2021/03/15 10:09:42;;;;;;;11.35;7.30;;;;;;;24.08;37.38;93097.47;5028642;28;20021;-69
2021/03/15 10:12:19;;;;;;;14.00;6.72;;;;;;;24.07;37.13;93106.22;5045269;28;20564;-69
2021/03/15 10:14:44;;;;;;;9.90;6.63;;;;;;;24.06;37.43;93102.75;5042794;28;20037;-70
2021/03/15 10:17:10;;;;;;;12.82;6.38;;;;;;;24.09;37.77;93100.91;5027930;28;20033;-70
2021/03/15 10:19:35;;;;;;;14.55;7.22;;;;;;;24.11;37.82;93099.09;5030449;28;20017;-71
2021/03/15 10:22:11;;;;;;;14.60;7.38;;;;;;;24.15;37.86;93098.69;5042269;28;20099;-70
2021/03/15 10:24:38;;;;;;;14.80;7.22;;;;;;;24.18;37.65;93092.81;5036723;28;20020;-77
2021/03/15 10:27:04;;;;;;;12.18;6.68;;;;;;;24.32;38.37;93080.34;5045693;28;20095;-77
2021/03/15 10:29:29;;;;;;;12.63;6.72;;;;;;;24.39;38.42;93079.53;5031754;28;20024;-77
2021/03/15 10:31:58;;;;;;;14.02;6.57;;;;;;;24.50;38.20;93073.63;5047020;28;20598;-77
2021/03/15 10:34:24;;;;;;;9.93;6.10;;;;;;;24.63;37.74;93070.53;5053360;28;20489;-76
2021/03/15 10:36:50;;;;;;;15.75;7.20;;;;;;;24.71;37.91;93060.25;5015449;28;20062;-77
2021/03/15 10:39:15;;;;;;;13.65;7.95;;;;;;;24.86;37.95;93066.97;5052563;28;20504;-77
2021/03/15 10:41:41;;;;;;;11.50;6.07;;;;;;;24.98;37.41;93061.75;5034214;28;20025;-78
2021/03/15 10:44:06;;;;;;;10.35;6.80;;;;;;;24.92;37.31;93031.22;5052390;28;20029;-77
2021/03/15 10:47:10;;;;;;;14.05;7.65;;;;;;;25.21;37.26;93041.03;5043007;28;20076;-77
2021/03/15 10:49:36;;;;;;;11.55;6.57;;;;;;;25.33;36.87;93041.94;5029075;28;20114;-76
2021/03/15 10:52:02;;;;;;;13.38;6.38;;;;;;;25.43;36.58;93029.06;5033371;28;20037;-76
2021/03/15 10:54:28;;;;;;;10.23;5.93;;;;;;;25.34;36.91;92999.69;5054490;28;20103;-74
2021/03/15 10:57:13;;;;;;;17.02;8.18;;;;;;;25.59;36.62;93022.78;5033585;28;20473;-77
2021/03/15 10:59:39;;;;;;;10.55;6.20;;;;;;;25.69;36.50;93011.88;5057769;28;20039;-75
2021/03/15 11:02:05;;;;;;;10.95;6.60;;;;;;;25.76;36.21;93013.78;5057590;28;20025;-80
2021/03/15 11:04:40;;;;;;;10.63;6.32;;;;;;;25.84;36.00;93013.09;5068283;28;20049;-78
2021/03/15 11:07:30;;;;;;;9.77;6.53;;;;;;;25.86;35.72;93010.50;5059691;28;20425;-78
2021/03/15 11:10:05;;;;;;;10.60;6.30;;;;;;;25.97;35.53;93004.44;5060310;28;20048;-76
2021/03/15 11:12:34;;;;;;;10.60;6.30;;;;;;;26.07;35.58;92996.97;5055127;28;20540;-76
2021/03/15 11:15:08;;;;;;;11.50;6.28;;;;;;;26.14;35.35;93006.34;5051015;28;20032;-77
2021/03/15 11:17:33;;;;;;;11.75;6.40;;;;;;;26.17;35.46;93011.38;5053653;28;20033;-76
2021/03/15 11:19:59;;;;;;;9.50;6.15;;;;;;;26.20;35.04;93007.47;5050664;28;20032;-81
2021/03/15 11:22:27;;;;;;;10.50;6.43;;;;;;;26.26;35.36;93002.44;5029064;28;20472;-75
2021/03/15 11:25:11;;;;;;;11.38;7.78;;;;;;;26.23;34.79;93003.59;5050455;28;20036;-76
2021/03/15 11:27:36;;;;;;;10.95;6.28;;;;;;;26.30;35.07;93008.25;5050251;28;20028;-75
2021/03/15 11:30:03;;;;;;;12.38;7.43;;;;;;;26.22;34.91;93006.91;5050682;28;20029;-80
2021/03/15 11:32:29;;;;;;;12.65;6.80;;;;;;;26.26;34.40;92996.97;5051500;28;20024;-77
2021/03/15 11:34:54;;;;;;;12.32;6.63;;;;;;;26.41;34.70;92991.22;5051629;28;20032;-75
2021/03/15 11:37:26;;;;;;;10.25;6.72;;;;;;;26.46;34.94;92988.22;5050192;28;20169;-76